Time;durP1;ratioP1;P1;durP2;ratioP2;P2;SDS_P1;SDS_P2;PMS_P1;PMS_P2;Temp;Humidity;BMP_temperature;BMP_pressure;BME280_temperature;BME280_humidity;BME280_pressure;Samples;Min_cycle;Max_cycle;Signal;HPM_P1;HPM_P2
2023/03/01 00:01:22;;;;;;;45.28;29.20;;;-0.80;99.90;;;;;;5099213;28;20198;-82
2023/03/01 00:03:49;;;;;;;59.67;34.53;;;-0.90;99.90;;;;;;5098210;28;20494;-83
2023/03/01 00:06:17;;;;;;;48.25;31.00;;;-0.90;99.90;;;;;;5097698;28;20483;-83
2023/03/01 00:08:45;;;;;;;57.15;34.00;;;-1.10;99.90;;;;;;5089617;28;20207;-82
2023/03/01 00:11:16;;;;;;;61.78;38.17;;;-1.10;99.90;;;;;;5077236;28;20564;-83
2023/03/01 00:13:45;;;;;;;69.40;40.30;;;-1.10;99.90;;;;;;5094232;28;20222;-83
2023/03/01 00:16:22;;;;;;;58.90;39.03;;;-1.00;99.90;;;;;;5098369;28;20202;-83
2023/03/01 00:18:51;;;;;;;66.68;39.17;;;-1.10;99.90;;;;;;5095657;28;20198;-82
2023/03/01 00:21:21;;;;;;;67.63;39.15;;;-1.30;99.90;;;;;;5098675;28;20465;-82
2023/03/01 00:23:49;;;;;;;56.38;36.20;;;-1.20;99.90;;;;;;5092699;28;20202;-82
2023/03/01 00:26:18;;;;;;;56.47;36.17;;;-1.30;99.90;;;;;;5117259;28;20212;-81
2023/03/01 00:28:45;;;;;;;58.75;39.00;;;-1.20;99.90;;;;;;5102177;28;20205;-83
2023/03/01 00:31:15;;;;;;;57.55;36.28;;;-1.00;99.90;;;;;;5112034;28;20207;-83
2023/03/01 00:33:42;;;;;;;59.05;40.05;;;-1.20;99.90;;;;;;5111398;28;20286;-84
2023/03/01 00:36:10;;;;;;;72.68;40.50;;;-1.20;99.90;;;;;;5099340;28;20228;-82
2023/03/01 00:38:41;;;;;;;71.35;40.83;;;-1.30;99.90;;;;;;5102717;28;20209;-83
2023/03/01 00:41:10;;;;;;;68.80;43.45;;;-1.20;99.90;;;;;;5105913;28;20210;-84
2023/03/01 00:43:38;;;;;;;65.80;40.08;;;-1.20;99.90;;;;;;5088447;28;20202;-84
2023/03/01 00:46:09;;;;;;;69.35;42.53;;;-1.20;99.90;;;;;;5101829;28;20211;-85
2023/03/01 00:48:37;;;;;;;73.28;45.03;;;-1.20;99.90;;;;;;5080829;28;20236;-85
2023/03/01 00:51:18;;;;;;;66.53;39.95;;;-1.30;99.90;;;;;;5105781;28;20210;-85
2023/03/01 00:53:45;;;;;;;77.25;44.20;;;-1.40;99.90;;;;;;5105881;28;20271;-85
2023/03/01 00:56:14;;;;;;;64.70;41.63;;;-1.30;99.90;;;;;;5095864;28;20220;-85
2023/03/01 00:58:42;;;;;;;79.25;43.55;;;-1.40;99.90;;;;;;5107388;28;20277;-84
2023/03/01 01:01:18;;;;;;;73.72;45.58;;;-1.30;99.90;;;;;;5111120;28;20236;-85
2023/03/01 01:03:54;;;;;;;78.60;45.17;;;-1.40;99.90;;;;;;5112196;28;20200;-87
2023/03/01 01:06:23;;;;;;;72.22;43.55;;;-1.50;99.90;;;;;;5103522;28;20198;-85
2023/03/01 01:08:52;;;;;;;77.78;44.38;;;-1.50;99.90;;;;;;5111932;28;20205;-87
2023/03/01 01:11:20;;;;;;;68.18;42.75;;;-1.50;99.90;;;;;;5112449;28;20305;-88
2023/03/01 01:13:49;;;;;;;75.28;45.25;;;-1.50;99.90;;;;;;5103869;28;20222;-86
2023/03/01 01:16:18;;;;;;;63.10;43.22;;;-1.60;99.90;;;;;;5094051;28;20210;-86
2023/03/01 01:18:45;;;;;;;67.60;43.78;;;-1.60;99.90;;;;;;5090753;28;20203;-86
2023/03/01 01:21:16;;;;;;;91.47;48.75;;;-1.60;99.90;;;;;;5112746;28;20205;-89
2023/03/01 01:23:44;;;;;;;72.03;45.00;;;-1.60;99.90;;;;;;5104638;28;20183;-86
2023/03/01 01:26:27;;;;;;;71.70;43.42;;;-1.80;99.90;;;;;;5085802;28;20253;-86
2023/03/01 01:28:58;;;;;;;77.50;46.28;;;-2.00;99.90;;;;;;5084696;28;20202;-85
2023/03/01 01:31:26;;;;;;;70.32;42.63;;;-1.90;99.90;;;;;;5096656;28;20212;-85
2023/03/01 01:33:55;;;;;;;79.22;45.60;;;-1.90;99.90;;;;;;5080220;28;20242;-86
2023/03/01 01:36:23;;;;;;;83.53;46.20;;;-1.80;99.90;;;;;;5101551;28;20738;-85
2023/03/01 01:38:51;;;;;;;77.15;44.83;;;-1.70;99.90;;;;;;5102840;28;20248;-86
2023/03/01 01:41:19;;;;;;;83.38;45.20;;;-1.60;99.90;;;;;;5077435;28;20213;-84
2023/03/01 01:44:13;;;;;;;69.05;45.45;;;-1.60;99.90;;;;;;5113221;28;20267;-85
2023/03/01 01:46:47;;;;;;;69.57;43.50;;;-1.70;99.90;;;;;;5106432;28;20202;-85
2023/03/01 01:49:24;;;;;;;76.32;43.35;;;-1.70;99.90;;;;;;5097542;28;20226;-86
2023/03/01 01:51:58;;;;;;;79.13;46.83;;;-1.70;99.90;;;;;;5113570;28;20196;-86
2023/03/01 01:54:31;;;;;;;77.63;44.80;;;-1.80;99.90;;;;;;5097483;28;20304;-86
2023/03/01 01:57:07;;;;;;;78.28;46.03;;;-1.80;99.90;;;;;;5103471;28;20733;-85
2023/03/01 01:59:34;;;;;;;83.28;46.58;;;-1.80;99.90;;;;;;5081412;28;20202;-85
2023/03/01 02:02:03;;;;;;;79.45;45.72;;;-2.10;99.90;;;;;;5112120;28;20249;-86
2023/03/01 02:04:32;;;;;;;77.78;47.95;;;-2.20;99.90;;;;;;5111735;28;20187;-86
2023/03/01 02:07:22;;;;;;;75.60;45.50;;;-1.90;99.90;;;;;;5098819;28;20257;-84
2023/03/01 02:09:52;;;;;;;73.22;42.97;;;-2.00;99.90;;;;;;5114730;28;20568;-89
2023/03/01 02:12:23;;;;;;;73.63;44.08;;;-2.00;99.90;;;;;;5107042;28;20221;-86
2023/03/01 02:14:51;;;;;;;81.72;47.00;;;-2.00;99.90;;;;;;5093215;28;20360;-87
2023/03/01 02:17:19;;;;;;;90.57;48.40;;;-1.90;99.90;;;;;;5101508;28;20251;-87
2023/03/01 02:19:58;;;;;;;78.97;46.88;;;-2.00;99.90;;;;;;5092509;28;20206;-85
2023/03/01 02:22:30;;;;;;;70.68;44.85;;;-1.90;99.90;;;;;;5090156;28;20208;-86
2023/03/01 02:25:12;;;;;;;88.32;50.40;;;-1.80;99.90;;;;;;5101084;28;20256;-84
2023/03/01 02:28:13;;;;;;;86.50;46.83;;;-2.00;99.90;;;;;;5098039;28;20204;-84
2023/03/01 02:31:41;;;;;;;79.85;45.03;;;-2.00;99.90;;;;;;5098257;28;20573;-85
2023/03/01 02:33:35;;;;;;;87.38;46.20;;;-2.00;99.90;;;;;;5096508;28;20232;-85
2023/03/01 02:36:17;;;;;;;78.13;48.40;;;-2.10;99.90;;;;;;5073768;28;20225;-85
2023/03/01 02:38:45;;;;;;;85.15;47.25;;;-2.10;99.90;;;;;;5097740;28;20207;-86
2023/03/01 02:41:15;;;;;;;83.30;52.35;;;-2.10;99.90;;;;;;5093275;28;20292;-85
2023/03/01 02:43:43;;;;;;;85.25;50.25;;;-2.10;99.90;;;;;;5098338;28;20433;-86
2023/03/01 02:46:16;;;;;;;90.95;52.28;;;-2.00;99.90;;;;;;5081520;28;20217;-85
2023/03/01 02:48:49;;;;;;;92.50;52.70;;;-2.00;99.90;;;;;;5083095;28;20232;-85
2023/03/01 02:51:47;;;;;;;87.32;52.83;;;-2.00;99.90;;;;;;5095401;28;20198;-84
2023/03/01 02:54:20;;;;;;;81.75;46.58;;;-2.00;99.90;;;;;;5102609;28;20210;-83
2023/03/01 02:56:48;;;;;;;89.88;47.97;;;-2.00;99.90;;;;;;5112960;28;20235;-84
2023/03/01 02:59:19;;;;;;;73.30;47.42;;;-2.30;99.90;;;;;;5105167;28;20200;-83
2023/03/01 03:01:47;;;;;;;84.30;50.13;;;-2.40;99.90;;;;;;5102224;28;20277;-84
2023/03/01 03:04:18;;;;;;;85.03;48.92;;;-2.40;99.90;;;;;;5101138;28;20220;-84
2023/03/01 03:06:50;;;;;;;88.40;48.38;;;-2.30;99.90;;;;;;5095194;28;20255;-83
2023/03/01 03:09:18;;;;;;;91.57;51.10;;;-2.30;99.90;;;;;;5090536;28;20443;-82
2023/03/01 03:11:46;;;;;;;94.43;51.60;;;-2.30;99.90;;;;;;5100515;28;20190;-82
2023/03/01 03:14:15;;;;;;;78.45;48.00;;;-2.30;99.90;;;;;;5077727;28;20216;-84
2023/03/01 03:16:43;;;;;;;95.05;51.17;;;-2.30;99.90;;;;;;5096857;28;20298;-84
2023/03/01 03:19:11;;;;;;;83.25;49.90;;;-2.20;99.90;;;;;;5100867;28;20224;-87
2023/03/01 03:21:39;;;;;;;80.70;48.75;;;-2.20;99.90;;;;;;5098687;28;20206;-85
2023/03/01 03:24:06;;;;;;;84.07;48.47;;;-2.30;99.90;;;;;;5091050;28;20195;-83
2023/03/01 03:26:32;;;;;;;87.47;51.67;;;-2.30;99.90;;;;;;5099862;28;20206;-84
2023/03/01 03:29:00;;;;;;;90.40;52.00;;;-2.40;99.90;;;;;;5102065;28;20204;-84
2023/03/01 03:31:27;;;;;;;88.80;47.60;;;-2.40;99.90;;;;;;5107732;28;20228;-83
2023/03/01 03:33:55;;;;;;;93.07;50.78;;;-2.30;99.90;;;;;;5094657;28;20652;-83
2023/03/01 03:36:24;;;;;;;87.63;49.90;;;-2.30;99.90;;;;;;5081052;28;20230;-81
2023/03/01 03:38:51;;;;;;;81.03;50.05;;;-2.30;99.90;;;;;;5092993;28;20208;-81
2023/03/01 03:41:18;;;;;;;94.35;52.38;;;-2.30;99.90;;;;;;5079056;28;20213;-82
2023/03/01 03:43:45;;;;;;;78.18;48.65;;;-2.40;99.90;;;;;;5100141;28;20518;-81
2023/03/01 03:46:13;;;;;;;91.13;50.85;;;-2.40;99.90;;;;;;5107290;28;20217;-84
2023/03/01 03:48:43;;;;;;;110.25;51.55;;;-2.40;99.90;;;;;;5102405;28;20206;-83
2023/03/01 03:51:13;;;;;;;94.75;51.78;;;-2.50;99.90;;;;;;5100570;28;20278;-83
2023/03/01 03:53:43;;;;;;;95.57;54.17;;;-2.40;99.90;;;;;;5100153;28;20217;-84
2023/03/01 03:56:11;;;;;;;81.07;50.83;;;-2.50;99.90;;;;;;5099061;28;20345;-83
2023/03/01 03:58:38;;;;;;;93.90;51.85;;;-2.50;99.90;;;;;;5074896;28;20198;-84
2023/03/01 04:01:06;;;;;;;93.57;51.10;;;-2.50;99.90;;;;;;5094257;28;20253;-83
2023/03/01 04:03:34;;;;;;;89.65;50.63;;;-2.60;99.90;;;;;;5095555;28;20206;-82
2023/03/01 04:06:02;;;;;;;85.55;52.25;;;-2.60;99.90;;;;;;5093137;28;20251;-82
2023/03/01 04:08:29;;;;;;;94.65;51.72;;;-2.50;99.90;;;;;;5105462;28;20278;-82
2023/03/01 04:11:25;;;;;;;79.50;54.92;;;-2.60;99.90;;;;;;5093671;28;20210;-82
2023/03/01 04:13:47;;;;;;;84.43;53.15;;;-2.60;99.90;;;;;;5102567;28;20200;-82
2023/03/01 04:16:14;;;;;;;93.57;50.47;;;-2.70;99.90;;;;;;5083562;28;20236;-83
2023/03/01 04:18:42;;;;;;;93.93;52.85;;;-2.60;99.90;;;;;;5095778;28;20249;-82
2023/03/01 04:21:11;;;;;;;105.20;57.00;;;-2.60;99.90;;;;;;5103643;28;20428;-81
2023/03/01 04:23:37;;;;;;;96.45;52.72;;;-2.50;99.90;;;;;;5103063;28;20529;-80
2023/03/01 04:26:04;;;;;;;91.22;53.58;;;-2.50;99.90;;;;;;5097039;28;20214;-81
2023/03/01 04:28:34;;;;;;;99.40;55.08;;;-2.50;99.90;;;;;;5078266;28;20196;-82
2023/03/01 04:31:12;;;;;;;93.25;53.90;;;-2.50;99.90;;;;;;5099096;28;20397;-82
2023/03/01 04:33:47;;;;;;;102.05;56.15;;;-2.60;99.90;;;;;;5079236;28;20256;-81
2023/03/01 04:36:16;;;;;;;94.03;51.70;;;-2.60;99.90;;;;;;5099477;28;20243;-82
2023/03/01 04:38:47;;;;;;;88.70;49.60;;;-2.60;99.90;;;;;;5097930;28;20278;-82
2023/03/01 04:41:17;;;;;;;103.70;56.40;;;-2.60;99.90;;;;;;5082889;28;20259;-83
2023/03/01 04:43:44;;;;;;;92.45;55.42;;;-2.60;99.90;;;;;;5085026;28;20206;-82
2023/03/01 04:46:16;;;;;;;95.68;54.60;;;-2.60;99.90;;;;;;5104083;28;20255;-84
2023/03/01 04:48:44;;;;;;;89.70;49.22;;;-2.60;99.90;;;;;;5100592;28;20242;-83
2023/03/01 04:51:13;;;;;;;96.60;54.45;;;-2.60;99.90;;;;;;5094016;28;20206;-83
2023/03/01 04:53:41;;;;;;;96.22;55.05;;;-2.70;99.90;;;;;;5100256;28;20203;-84
2023/03/01 04:56:09;;;;;;;87.05;52.08;;;-2.70;99.90;;;;;;5100225;28;20262;-83
2023/03/01 04:58:36;;;;;;;102.20;59.90;;;-2.60;99.90;;;;;;5096415;28;20487;-83
2023/03/01 05:01:15;;;;;;;93.35;55.05;;;-2.60;99.90;;;;;;5097742;28;20202;-84
2023/03/01 05:03:52;;;;;;;101.93;54.17;;;-2.60;99.90;;;;;;5108580;28;20229;-85
2023/03/01 05:06:20;;;;;;;94.82;53.03;;;-2.60;99.90;;;;;;5110631;28;20184;-85
2023/03/01 05:08:47;;;;;;;98.40;56.97;;;-2.70;99.90;;;;;;5106538;28;20185;-85
2023/03/01 05:11:14;;;;;;;93.68;56.17;;;-2.70;99.90;;;;;;5100947;28;20214;-82
2023/03/01 05:13:41;;;;;;;97.82;57.03;;;-2.70;99.90;;;;;;5092583;28;20212;-83
2023/03/01 05:16:11;;;;;;;100.90;58.70;;;-2.80;99.90;;;;;;5099007;28;20229;-83
2023/03/01 05:18:39;;;;;;;90.15;55.03;;;-2.80;99.90;;;;;;5095998;28;20214;-84
2023/03/01 05:21:10;;;;;;;93.57;55.40;;;-2.90;99.90;;;;;;5091670;28;20209;-84
2023/03/01 05:23:37;;;;;;;89.57;52.42;;;-3.00;99.90;;;;;;5092379;28;20282;-83
2023/03/01 05:26:06;;;;;;;88.60;53.03;;;-2.90;99.90;;;;;;5098779;28;20204;-83
2023/03/01 05:28:48;;;;;;;95.10;55.95;;;-2.80;99.90;;;;;;5078665;28;20206;-84
2023/03/01 05:31:15;;;;;;;95.70;56.55;;;-2.60;99.90;;;;;;5071101;28;20196;-84
2023/03/01 05:33:43;;;;;;;103.25;55.40;;;-2.70;99.90;;;;;;5102754;28;20199;-84
2023/03/01 05:36:11;;;;;;;91.85;54.78;;;-2.70;99.90;;;;;;5078752;28;20409;-84
2023/03/01 05:38:37;;;;;;;88.70;53.00;;;-2.80;99.90;;;;;;5096425;28;20195;-85
2023/03/01 05:41:05;;;;;;;103.38;57.70;;;-2.70;99.90;;;;;;5097527;28;20478;-84
2023/03/01 05:43:33;;;;;;;89.28;52.20;;;-2.70;99.90;;;;;;5091782;28;20259;-83
2023/03/01 05:46:00;;;;;;;96.28;56.92;;;-2.70;99.90;;;;;;5095103;28;20425;-84
2023/03/01 05:48:27;;;;;;;104.03;55.92;;;-2.80;99.90;;;;;;5095936;28;20200;-82
2023/03/01 05:50:54;;;;;;;100.72;53.95;;;-2.90;99.90;;;;;;5080612;28;20210;-82
2023/03/01 05:53:21;;;;;;;104.55;58.20;;;-2.90;99.90;;;;;;5095270;28;20207;-84
2023/03/01 05:55:49;;;;;;;96.63;55.67;;;-2.70;99.90;;;;;;5099314;28;20241;-83
2023/03/01 05:58:18;;;;;;;106.65;56.50;;;-2.60;99.90;;;;;;5096356;28;20488;-84
2023/03/01 06:00:47;;;;;;;104.07;56.70;;;-2.50;99.90;;;;;;5095112;28;20250;-83
2023/03/01 06:03:16;;;;;;;98.80;56.45;;;-2.30;99.90;;;;;;5095669;28;20218;-84
2023/03/01 06:05:43;;;;;;;102.20;57.95;;;-2.50;99.90;;;;;;5071923;28;20221;-84
2023/03/01 06:08:11;;;;;;;99.55;56.65;;;-2.50;99.90;;;;;;5090446;28;20278;-82
2023/03/01 06:10:39;;;;;;;105.82;59.90;;;-2.40;99.90;;;;;;5090126;28;20717;-85
2023/03/01 06:13:06;;;;;;;113.57;60.95;;;-2.30;99.90;;;;;;5111717;28;20192;-83
2023/03/01 06:15:33;;;;;;;99.20;57.17;;;-2.20;99.90;;;;;;5080766;28;20530;-86
2023/03/01 06:18:00;;;;;;;97.63;56.47;;;-2.10;99.90;;;;;;5079130;28;20230;-85
2023/03/01 06:20:28;;;;;;;89.20;55.53;;;-2.00;99.90;;;;;;5076472;28;20212;-87
2023/03/01 06:22:56;;;;;;;98.47;59.55;;;-1.90;99.90;;;;;;5101008;28;20236;-86
2023/03/01 06:25:25;;;;;;;106.72;59.45;;;-1.80;99.90;;;;;;5100840;28;20202;-87
2023/03/01 06:27:52;;;;;;;108.35;59.65;;;-1.60;99.90;;;;;;5082792;28;20268;-85
2023/03/01 06:30:21;;;;;;;117.75;67.25;;;-1.20;99.90;;;;;;5080538;28;20210;-86
2023/03/01 06:32:49;;;;;;;98.88;62.22;;;-0.60;99.90;;;;;;5100186;28;20206;-87
2023/03/01 06:35:17;;;;;;;65.55;42.83;;;-0.10;99.90;;;;;;5083136;28;20229;-86
2023/03/01 06:37:46;;;;;;;69.70;43.60;;;0.40;99.90;;;;;;5078445;28;20252;-87
2023/03/01 06:40:14;;;;;;;59.72;37.22;;;0.90;99.90;;;;;;5101533;28;20206;-86
2023/03/01 06:42:47;;;;;;;64.55;40.90;;;1.00;99.90;;;;;;5096291;28;20210;-86
2023/03/01 06:45:15;;;;;;;72.68;43.45;;;1.00;99.90;;;;;;5088578;28;20206;-85
2023/03/01 06:47:42;;;;;;;65.55;40.90;;;1.10;99.90;;;;;;5106969;28;20216;-85
2023/03/01 06:50:10;;;;;;;65.80;41.35;;;2.00;99.90;;;;;;5081848;28;20214;-86
2023/03/01 06:52:37;;;;;;;77.32;46.30;;;2.70;99.90;;;;;;5098168;28;20197;-87
2023/03/01 06:55:05;;;;;;;79.32;40.97;;;2.90;99.90;;;;;;5095079;28;20204;-87
2023/03/01 06:57:33;;;;;;;67.40;41.17;;;2.50;99.90;;;;;;5100113;28;20220;-83
2023/03/01 06:59:59;;;;;;;69.30;40.17;;;2.10;99.90;;;;;;5099417;28;20512;-85
2023/03/01 07:02:27;;;;;;;55.75;36.75;;;2.00;99.90;;;;;;5098693;28;20209;-84
2023/03/01 07:04:55;;;;;;;53.17;35.50;;;1.80;99.90;;;;;;5094359;28;20354;-85
2023/03/01 07:07:22;;;;;;;58.10;38.55;;;1.90;99.90;;;;;;5079895;28;20258;-84
2023/03/01 07:09:49;;;;;;;67.72;39.55;;;1.90;99.90;;;;;;5093937;28;20250;-83
2023/03/01 07:12:16;;;;;;;66.30;40.22;;;2.00;99.90;;;;;;5096061;28;20201;-85
2023/03/01 07:14:44;;;;;;;57.20;38.95;;;2.20;99.90;;;;;;5091084;28;20237;-83
2023/03/01 07:17:11;;;;;;;56.55;35.78;;;2.60;99.90;;;;;;5097095;28;20233;-82
2023/03/01 07:19:38;;;;;;;51.83;30.77;;;3.00;99.90;;;;;;5079935;28;20209;-82
2023/03/01 07:22:07;;;;;;;52.17;32.53;;;3.20;99.90;;;;;;5097625;28;20775;-82
2023/03/01 07:24:34;;;;;;;45.97;29.58;;;3.60;99.90;;;;;;5079316;28;20287;-81
2023/03/01 07:27:01;;;;;;;47.72;31.27;;;3.80;99.90;;;;;;5091946;28;20206;-81
2023/03/01 07:29:28;;;;;;;52.10;31.13;;;3.80;99.90;;;;;;5094522;28;20206;-80
2023/03/01 07:31:55;;;;;;;54.80;30.02;;;3.60;99.90;;;;;;5095103;28;20237;-80
2023/03/01 07:34:22;;;;;;;48.40;32.08;;;3.20;99.90;;;;;;5089300;28;20211;-82
2023/03/01 07:36:49;;;;;;;48.70;30.88;;;3.70;99.90;;;;;;5092025;28;20229;-82
2023/03/01 07:39:16;;;;;;;46.70;29.27;;;4.80;99.90;;;;;;5099003;28;20210;-81
2023/03/01 07:41:45;;;;;;;45.83;30.20;;;6.20;99.90;;;;;;5081209;28;20206;-80
2023/03/01 07:44:12;;;;;;;50.78;30.40;;;7.60;99.90;;;;;;5107576;28;20454;-83
2023/03/01 07:46:39;;;;;;;44.28;29.92;;;8.40;99.90;;;;;;5097485;28;20200;-81
2023/03/01 07:49:06;;;;;;;47.33;28.02;;;10.10;99.90;;;;;;5094596;28;20208;-81
2023/03/01 07:51:33;;;;;;;46.60;28.77;;;11.70;99.90;;;;;;5096327;28;20229;-83
2023/03/01 07:54:00;;;;;;;52.38;31.20;;;12.60;99.90;;;;;;5100346;28;20494;-82
2023/03/01 07:56:26;;;;;;;49.08;30.85;;;13.50;99.90;;;;;;5095198;28;20281;-81
2023/03/01 07:58:53;;;;;;;41.42;30.00;;;14.10;99.90;;;;;;5096289;28;20371;-81
2023/03/01 08:01:21;;;;;;;46.65;29.42;;;14.90;99.80;;;;;;5095929;28;20202;-81
2023/03/01 08:03:50;;;;;;;36.77;26.53;;;15.50;98.30;;;;;;5093862;28;20252;-81
2023/03/01 08:06:18;;;;;;;33.67;24.33;;;16.30;94.10;;;;;;5101125;28;20870;-81
2023/03/01 08:08:45;;;;;;;34.57;24.67;;;16.60;92.20;;;;;;5100568;28;20443;-79
2023/03/01 08:11:14;;;;;;;51.90;31.30;;;16.80;88.20;;;;;;5089691;28;20847;-81
2023/03/01 08:13:42;;;;;;;38.93;27.97;;;17.00;85.60;;;;;;5100362;28;20456;-81
2023/03/01 08:16:14;;;;;;;42.00;28.00;;;16.40;86.90;;;;;;5099533;28;20482;-81
2023/03/01 08:18:43;;;;;;;57.57;32.83;;;16.10;89.80;;;;;;5075465;28;20431;-81
2023/03/01 08:21:15;;;;;;;38.43;26.03;;;16.10;83.80;;;;;;5076077;28;20524;-81
2023/03/01 08:23:43;;;;;;;35.97;22.80;;;16.60;79.80;;;;;;5089303;28;20439;-79
2023/03/01 08:26:18;;;;;;;29.73;22.73;;;15.40;84.20;;;;;;5099328;28;20508;-80
2023/03/01 08:28:45;;;;;;;33.00;23.43;;;16.00;85.30;;;;;;5080974;28;20446;-81
2023/03/01 08:31:28;;;;;;;34.67;22.97;;;16.90;80.70;;;;;;5098903;28;20434;-80
2023/03/01 08:33:57;;;;;;;28.73;21.90;;;17.00;76.40;;;;;;5092278;28;20611;-80
2023/03/01 08:36:26;;;;;;;34.83;24.90;;;17.20;74.40;;;;;;5076883;28;20475;-81
2023/03/01 08:38:54;;;;;;;27.93;20.03;;;16.40;76.00;;;;;;5080515;28;20500;-80
2023/03/01 08:41:21;;;;;;;26.03;20.50;;;14.90;77.80;;;;;;5098662;28;20658;-80
2023/03/01 08:43:48;;;;;;;23.43;18.47;;;13.60;81.70;;;;;;5098258;28;20458;-80
2023/03/01 08:46:15;;;;;;;27.93;17.47;;;13.60;86.90;;;;;;5098080;28;20450;-79
2023/03/01 08:48:43;;;;;;;29.67;20.10;;;13.60;82.40;;;;;;5098588;28;20443;-81
2023/03/01 08:51:13;;;;;;;36.10;20.03;;;14.00;87.70;;;;;;5099005;28;20458;-79
2023/03/01 08:53:41;;;;;;;27.33;20.08;;;13.90;84.70;;;;;;5080208;28;20922;-81
2023/03/01 08:56:09;;;;;;;24.50;18.50;;;13.80;86.50;;;;;;5099272;28;20222;-80
2023/03/01 08:58:37;;;;;;;24.15;17.45;;;12.70;90.30;;;;;;5098159;28;20259;-83
2023/03/01 09:01:08;;;;;;;24.33;16.73;;;12.20;90.30;;;;;;5099140;28;20420;-81
2023/03/01 09:03:35;;;;;;;20.42;15.50;;;9.40;96.50;;;;;;5078388;28;20498;-80
2023/03/01 09:06:03;;;;;;;20.13;15.00;;;10.30;96.80;;;;;;5075070;28;20556;-81
2023/03/01 09:08:33;;;;;;;23.52;15.90;;;9.70;97.80;;;;;;5096191;28;20238;-82
2023/03/01 09:11:03;;;;;;;22.02;16.23;;;11.30;96.70;;;;;;5080840;28;20195;-82
2023/03/01 09:13:32;;;;;;;25.38;18.42;;;11.80;94.80;;;;;;5098268;28;20552;-80
2023/03/01 09:16:02;;;;;;;26.58;18.00;;;11.90;93.50;;;;;;5097900;28;20243;-82
2023/03/01 09:18:29;;;;;;;26.63;20.52;;;12.00;95.40;;;;;;5092156;28;20250;-80
2023/03/01 09:21:11;;;;;;;30.15;20.27;;;11.70;94.20;;;;;;5097731;28;20202;-80
2023/03/01 09:23:44;;;;;;;23.75;18.95;;;10.90;96.00;;;;;;5080143;28;20198;-80
2023/03/01 09:26:21;;;;;;;27.73;19.35;;;9.90;99.90;;;;;;5098180;28;20206;-80
2023/03/01 09:28:51;;;;;;;25.70;18.27;;;10.30;99.90;;;;;;5090963;28;20213;-81
2023/03/01 09:31:20;;;;;;;23.75;19.50;;;9.80;99.90;;;;;;5093301;28;20400;-80
2023/03/01 09:33:49;;;;;;;26.67;20.10;;;9.10;99.90;;;;;;5073066;28;20397;-81
2023/03/01 09:36:19;;;;;;;25.30;18.10;;;7.90;99.90;;;;;;5099056;28;20464;-81
2023/03/01 09:38:46;;;;;;;26.08;19.00;;;6.90;99.90;;;;;;5112007;28;20250;-81
2023/03/01 09:41:42;;;;;;;29.95;20.70;;;6.20;99.90;;;;;;5108586;28;20208;-81
2023/03/01 09:44:18;;;;;;;29.58;19.48;;;5.60;99.90;;;;;;5107402;28;20427;-80
2023/03/01 09:46:46;;;;;;;32.47;21.30;;;5.70;99.90;;;;;;5102427;28;20209;-80
2023/03/01 09:49:20;;;;;;;28.92;18.90;;;5.40;99.90;;;;;;5099974;28;20386;-83
2023/03/01 09:51:58;;;;;;;26.98;19.33;;;5.10;99.90;;;;;;5091353;28;20436;-82
2023/03/01 09:54:26;;;;;;;29.30;21.60;;;4.80;99.90;;;;;;5098152;28;20488;-80
2023/03/01 09:57:11;;;;;;;33.08;22.35;;;4.80;99.90;;;;;;5097023;28;20417;-81
2023/03/01 10:00:07;;;;;;;33.60;22.13;;;4.90;99.90;;;;;;5082172;28;20590;-81
2023/03/01 10:03:04;;;;;;;33.67;21.20;;;4.80;99.90;;;;;;5061655;28;20248;-81
2023/03/01 10:05:36;;;;;;;36.75;22.45;;;4.70;99.90;;;;;;5051287;28;20206;-82
2023/03/01 10:08:08;;;;;;;33.38;21.65;;;5.00;99.90;;;;;;5091820;28;20210;-82
2023/03/01 10:10:40;;;;;;;31.70;18.45;;;5.20;99.90;;;;;;5078597;28;20218;-82
2023/03/01 10:13:19;;;;;;;34.30;19.38;;;5.20;99.90;;;;;;5080108;28;20243;-82
2023/03/01 10:15:55;;;;;;;33.92;21.20;;;5.30;99.90;;;;;;5091146;28;20228;-82
2023/03/01 10:18:27;;;;;;;31.92;19.20;;;5.50;99.90;;;;;;5096542;28;20439;-82
2023/03/01 10:21:03;;;;;;;29.98;19.38;;;5.20;99.90;;;;;;5097914;28;20255;-81
2023/03/01 10:23:32;;;;;;;26.55;17.90;;;5.20;99.90;;;;;;5096814;28;20608;-83
2023/03/01 10:26:19;;;;;;;29.73;17.80;;;5.30;99.90;;;;;;5080008;28;20244;-84
2023/03/01 10:29:09;;;;;;;32.15;20.25;;;5.40;99.90;;;;;;5094576;28;20499;-83
2023/03/01 10:31:48;;;;;;;35.33;19.83;;;5.40;99.90;;;;;;5097719;28;20217;-82
2023/03/01 10:34:18;;;;;;;28.90;18.85;;;5.30;99.90;;;;;;5079684;28;20405;-82
2023/03/01 10:36:49;;;;;;;30.73;18.85;;;5.20;99.90;;;;;;5098285;28;20234;-83
2023/03/01 10:39:22;;;;;;;29.55;18.95;;;5.20;99.90;;;;;;5099609;28;20232;-85
2023/03/01 10:41:58;;;;;;;33.08;20.20;;;5.00;99.90;;;;;;5090270;28;20194;-82
2023/03/01 10:44:46;;;;;;;34.08;21.98;;;5.10;99.90;;;;;;5097938;28;20206;-83
2023/03/01 10:47:33;;;;;;;28.90;19.00;;;5.00;99.90;;;;;;5099633;28;20258;-82
2023/03/01 10:50:03;;;;;;;35.50;18.83;;;4.70;99.90;;;;;;5101272;28;20206;-82
2023/03/01 10:52:34;;;;;;;24.88;17.98;;;4.70;99.90;;;;;;5079309;28;20251;-82
2023/03/01 10:55:12;;;;;;;28.90;19.15;;;4.80;99.90;;;;;;5099728;28;20201;-82
2023/03/01 10:57:42;;;;;;;29.45;20.08;;;4.70;99.90;;;;;;5098578;28;20560;-81
2023/03/01 11:00:22;;;;;;;27.98;19.02;;;4.70;99.90;;;;;;5098543;28;20367;-84
2023/03/01 11:03:02;;;;;;;33.47;19.73;;;4.80;99.90;;;;;;5090913;28;20212;-82
2023/03/01 11:05:30;;;;;;;29.33;18.10;;;5.00;99.90;;;;;;5075605;28;20202;-84
2023/03/01 11:07:58;;;;;;;31.20;18.42;;;5.10;99.90;;;;;;5097920;28;20204;-83
2023/03/01 11:10:29;;;;;;;25.63;14.80;;;5.20;99.90;;;;;;5098848;28;20261;-85
2023/03/01 11:13:17;;;;;;;27.02;17.58;;;5.10;99.90;;;;;;5091278;28;20202;-81
2023/03/01 11:15:59;;;;;;;26.08;16.80;;;4.90;99.90;;;;;;5080814;28;20236;-83
2023/03/01 11:18:29;;;;;;;24.65;17.60;;;4.80;99.90;;;;;;5095865;28;20194;-84
2023/03/01 11:21:12;;;;;;;30.48;18.80;;;4.90;99.90;;;;;;5098462;28;20372;-83
2023/03/01 11:23:40;;;;;;;24.13;15.40;;;4.90;99.90;;;;;;5094028;28;20438;-86
2023/03/01 11:26:09;;;;;;;23.63;15.50;;;5.20;99.90;;;;;;5092525;28;20248;-85
2023/03/01 11:28:41;;;;;;;22.30;14.82;;;5.10;99.90;;;;;;5107345;28;20203;-82
2023/03/01 11:31:12;;;;;;;21.05;13.13;;;5.20;99.90;;;;;;5110251;28;20194;-84
2023/03/01 11:33:59;;;;;;;20.30;13.95;;;5.20;99.90;;;;;;5098202;28;20530;-83
2023/03/01 11:36:38;;;;;;;23.08;15.18;;;5.00;99.90;;;;;;5098378;28;20227;-82
2023/03/01 11:39:28;;;;;;;21.80;14.55;;;5.00;99.90;;;;;;5081635;28;20277;-82
2023/03/01 11:42:15;;;;;;;17.83;13.00;;;5.10;99.90;;;;;;5097833;28;20429;-83
2023/03/01 11:44:48;;;;;;;25.30;14.80;;;5.10;99.90;;;;;;5099380;28;20486;-82
2023/03/01 11:47:25;;;;;;;21.88;14.90;;;5.10;99.90;;;;;;5096374;28;20694;-86
2023/03/01 11:50:21;;;;;;;21.70;13.13;;;4.90;99.90;;;;;;5073776;28;20367;-84
2023/03/01 11:53:18;;;;;;;24.33;12.60;;;4.90;99.90;;;;;;5098561;28;20255;-83
2023/03/01 11:55:47;;;;;;;23.38;13.43;;;5.10;99.90;;;;;;5097297;28;20490;-83
2023/03/01 11:59:08;;;;;;;16.98;12.55;;;5.20;99.90;;;;;;5095284;28;20230;-84
2023/03/01 12:01:47;;;;;;;21.02;13.20;;;5.20;99.90;;;;;;5029300;28;20263;-84
2023/03/01 12:04:33;;;;;;;26.70;14.60;;;5.10;99.90;;;;;;5105710;28;20555;-83
2023/03/01 12:07:14;;;;;;;22.33;13.93;;;5.10;99.90;;;;;;5096929;28;20198;-81
2023/03/01 12:10:04;;;;;;;19.20;14.32;;;5.30;99.90;;;;;;5095030;28;20256;-83
2023/03/01 12:12:48;;;;;;;21.23;14.55;;;5.40;99.90;;;;;;5090329;28;20206;-83
2023/03/01 12:15:31;;;;;;;26.38;14.82;;;5.20;99.90;;;;;;5098906;28;20201;-84
2023/03/01 12:18:25;;;;;;;19.75;12.55;;;5.00;99.90;;;;;;5075939;28;20459;-85
2023/03/01 12:21:24;;;;;;;17.20;13.85;;;5.20;99.90;;;;;;5090658;28;20204;-87
2023/03/01 12:24:30;;;;;;;20.40;14.63;;;5.30;99.90;;;;;;5075889;28;20202;-86
2023/03/01 12:26:57;;;;;;;21.25;14.85;;;5.10;99.90;;;;;;5069463;28;20220;-85
2023/03/01 12:29:58;;;;;;;18.45;12.43;;;5.20;99.90;;;;;;5108219;28;20209;-84
2023/03/01 12:32:39;;;;;;;21.67;14.50;;;5.50;99.90;;;;;;5100473;28;20201;-84
2023/03/01 12:35:12;;;;;;;30.02;14.70;;;5.40;99.90;;;;;;5099363;28;20195;-84
2023/03/01 12:37:42;;;;;;;18.08;12.93;;;5.30;99.90;;;;;;5103790;28;20294;-84
2023/03/01 12:40:33;;;;;;;17.42;12.45;;;5.40;99.90;;;;;;5103564;28;20244;-86
2023/03/01 12:43:08;;;;;;;23.42;13.43;;;5.20;99.90;;;;;;5095014;28;20220;-84
2023/03/01 12:45:51;;;;;;;19.52;10.98;;;5.30;99.90;;;;;;5097467;28;20207;-84
2023/03/01 12:48:25;;;;;;;18.40;13.15;;;5.50;99.90;;;;;;5096637;28;20210;-84
2023/03/01 12:50:57;;;;;;;15.88;12.45;;;5.50;99.90;;;;;;5086878;28;20198;-87
2023/03/01 12:53:27;;;;;;;24.60;14.40;;;5.40;99.90;;;;;;5093236;28;20210;-84
2023/03/01 12:56:00;;;;;;;16.38;13.90;;;5.60;99.90;;;;;;5097341;28;20212;-87